UAL3443 KEWR-KDCA
Flight info
| Callsign | UAL3443 |
|---|---|
| Flight time | 0h 42m |
| Altitude | 30000 |
| Route | BIGGY Q75 MXE CLIPR3 |
| Aircraft | B737/M-SDE2E3FGHIRWXY/LB1 |
Departure
| Time | 2026-04-22 03:06 |
|---|---|
| Airport | Newark Liberty International Airport (KEWR) |
Arrival
| Time | 2026-04-22 03:48 |
|---|---|
| Airport | Ronald Reagan Washington National Airport (KDCA) |
| Time | Latitude | Longitude | Altitude | Speed | Heading |
|---|---|---|---|---|---|
| 2026-04-22 02:57 | 40.69589 | -74.17457 | 21 ft | 0 kts | 41° |
| 2026-04-22 02:59 | 40.69595 | -74.17450 | 21 ft | 1 kts | 41° |
| 2026-04-22 02:59 | 40.69621 | -74.17421 | 22 ft | 10 kts | 41° |
| 2026-04-22 03:00 | 40.69675 | -74.17358 | 21 ft | 10 kts | 41° |
| 2026-04-22 03:00 | 40.69715 | -74.17282 | 22 ft | 10 kts | 65° |
| 2026-04-22 03:00 | 40.69756 | -74.17203 | 21 ft | 10 kts | 51° |
| 2026-04-22 03:00 | 40.69770 | -74.17179 | 21 ft | 0 kts | 51° |
| 2026-04-22 03:01 | 40.69780 | -74.17146 | 21 ft | 7 kts | 92° |
| 2026-04-22 03:01 | 40.69739 | -74.17091 | 21 ft | 11 kts | 143° |
| 2026-04-22 03:01 | 40.69653 | -74.17030 | 21 ft | 16 kts | 153° |
| 2026-04-22 03:01 | 40.69645 | -74.16898 | 23 ft | 16 kts | 70° |
| 2026-04-22 03:02 | 40.69683 | -74.16766 | 21 ft | 15 kts | 65° |
| 2026-04-22 03:02 | 40.69766 | -74.16688 | 20 ft | 15 kts | 26° |
| 2026-04-22 03:02 | 40.69857 | -74.16630 | 20 ft | 15 kts | 26° |
| 2026-04-22 03:02 | 40.69953 | -74.16569 | 20 ft | 16 kts | 26° |
| 2026-04-22 03:03 | 40.70062 | -74.16500 | 20 ft | 20 kts | 26° |
| 2026-04-22 03:03 | 40.70205 | -74.16465 | 20 ft | 21 kts | 5° |
| 2026-04-22 03:03 | 40.70278 | -74.16392 | 21 ft | 13 kts | 92° |
| 2026-04-22 03:03 | 40.70273 | -74.16276 | 21 ft | 13 kts | 97° |
| 2026-04-22 03:04 | 40.70204 | -74.16249 | 19 ft | 6 kts | 206° |
| 2026-04-22 03:04 | 40.70202 | -74.16251 | 19 ft | 0 kts | 206° |
| 2026-04-22 03:05 | 40.70188 | -74.16260 | 19 ft | 7 kts | 206° |
| 2026-04-22 03:05 | 40.70049 | -74.16348 | 20 ft | 53 kts | 205° |
| 2026-04-22 03:05 | 40.69481 | -74.16709 | 22 ft | 125 kts | 205° |
| 2026-04-22 03:06 | 40.68535 | -74.17312 | 124 ft | 170 kts | 206° |
| 2026-04-22 03:06 | 40.67486 | -74.18006 | 1003 ft | 161 kts | 207° |
| 2026-04-22 03:06 | 40.66486 | -74.18501 | 1992 ft | 153 kts | 187° |
| 2026-04-22 03:06 | 40.65329 | -74.18604 | 2351 ft | 184 kts | 187° |
| 2026-04-22 03:07 | 40.63959 | -74.18835 | 2687 ft | 208 kts | 189° |
| 2026-04-22 03:07 | 40.62553 | -74.19419 | 3262 ft | 218 kts | 216° |
| 2026-04-22 03:07 | 40.61565 | -74.21030 | 3641 ft | 243 kts | 246° |
| 2026-04-22 03:07 | 40.60932 | -74.23148 | 4344 ft | 252 kts | 249° |
| 2026-04-22 03:08 | 40.60300 | -74.25290 | 5330 ft | 251 kts | 250° |
| 2026-04-22 03:08 | 40.59655 | -74.27448 | 6197 ft | 255 kts | 251° |
| 2026-04-22 03:08 | 40.59081 | -74.29654 | 7136 ft | 255 kts | 264° |
| 2026-04-22 03:08 | 40.59008 | -74.31966 | 8065 ft | 253 kts | 274° |
| 2026-04-22 03:09 | 40.59011 | -74.34285 | 9058 ft | 254 kts | 274° |
| 2026-04-22 03:09 | 40.59003 | -74.36616 | 10066 ft | 256 kts | 275° |
| 2026-04-22 03:09 | 40.58988 | -74.39008 | 10683 ft | 272 kts | 275° |
| 2026-04-22 03:09 | 40.58970 | -74.41627 | 10947 ft | 298 kts | 274° |
| 2026-04-22 03:10 | 40.58924 | -74.44401 | 11652 ft | 307 kts | 274° |
| 2026-04-22 03:10 | 40.58867 | -74.47223 | 12528 ft | 310 kts | 274° |
| 2026-04-22 03:10 | 40.58807 | -74.50076 | 13442 ft | 314 kts | 274° |
| 2026-04-22 03:10 | 40.58747 | -74.52956 | 14345 ft | 316 kts | 274° |
| 2026-04-22 03:11 | 40.58687 | -74.55879 | 15139 ft | 322 kts | 274° |
| 2026-04-22 03:11 | 40.58629 | -74.58836 | 15987 ft | 326 kts | 275° |
| 2026-04-22 03:11 | 40.58567 | -74.61826 | 16884 ft | 328 kts | 275° |
| 2026-04-22 03:11 | 40.58504 | -74.64847 | 17754 ft | 332 kts | 275° |
| 2026-04-22 03:12 | 40.58441 | -74.67900 | 18596 ft | 337 kts | 275° |
| 2026-04-22 03:12 | 40.57754 | -74.74112 | 20036 ft | 362 kts | 255° |
| 2026-04-22 03:12 | 40.56424 | -74.77008 | 20781 ft | 381 kts | 239° |
| 2026-04-22 03:13 | 40.54672 | -74.79602 | 21477 ft | 388 kts | 236° |
| 2026-04-22 03:13 | 40.52796 | -74.82200 | 22123 ft | 395 kts | 235° |
| 2026-04-22 03:13 | 40.50883 | -74.84823 | 22797 ft | 399 kts | 235° |
| 2026-04-22 03:13 | 40.48970 | -74.87468 | 23641 ft | 398 kts | 236° |
| 2026-04-22 03:14 | 40.47083 | -74.90105 | 24510 ft | 394 kts | 236° |
| 2026-04-22 03:14 | 40.45197 | -74.92766 | 25265 ft | 393 kts | 236° |
| 2026-04-22 03:14 | 40.43336 | -74.95403 | 25926 ft | 394 kts | 236° |
| 2026-04-22 03:14 | 40.41492 | -74.98014 | 26597 ft | 395 kts | 236° |
| 2026-04-22 03:15 | 40.39618 | -75.00652 | 27324 ft | 395 kts | 236° |
| 2026-04-22 03:15 | 40.37746 | -75.03279 | 28037 ft | 395 kts | 236° |
| 2026-04-22 03:15 | 40.35862 | -75.05924 | 28307 ft | 398 kts | 236° |
| 2026-04-22 03:15 | 40.33981 | -75.08558 | 28308 ft | 393 kts | 236° |
| 2026-04-22 03:16 | 40.30237 | -75.13799 | 28350 ft | 395 kts | 236° |
| 2026-04-22 03:16 | 40.28338 | -75.16464 | 28373 ft | 406 kts | 236° |
| 2026-04-22 03:16 | 40.26377 | -75.19220 | 28363 ft | 420 kts | 236° |
| 2026-04-22 03:17 | 40.24352 | -75.22059 | 28369 ft | 433 kts | 235° |
| 2026-04-22 03:17 | 40.22266 | -75.24970 | 28361 ft | 444 kts | 235° |
| 2026-04-22 03:17 | 40.17946 | -75.30977 | 28347 ft | 462 kts | 234° |
| 2026-04-22 03:18 | 40.13467 | -75.37196 | 28368 ft | 477 kts | 234° |
| 2026-04-22 03:18 | 40.08860 | -75.43582 | 28320 ft | 486 kts | 233° |
| 2026-04-22 03:19 | 40.04233 | -75.49968 | 28337 ft | 483 kts | 233° |
| 2026-04-22 03:19 | 39.99611 | -75.56345 | 27893 ft | 484 kts | 233° |
| 2026-04-22 03:20 | 39.97300 | -75.59531 | 27419 ft | 483 kts | 233° |
| 2026-04-22 03:20 | 39.94990 | -75.62713 | 26895 ft | 484 kts | 233° |
| 2026-04-22 03:20 | 39.92675 | -75.65896 | 26365 ft | 484 kts | 233° |
| 2026-04-22 03:20 | 39.90479 | -75.69185 | 25810 ft | 475 kts | 240° |
| 2026-04-22 03:21 | 39.88621 | -75.72653 | 25256 ft | 460 kts | 244° |
| 2026-04-22 03:21 | 39.86916 | -75.76075 | 24707 ft | 440 kts | 244° |
| 2026-04-22 03:21 | 39.85300 | -75.79337 | 24186 ft | 419 kts | 244° |
| 2026-04-22 03:21 | 39.83741 | -75.82437 | 23665 ft | 401 kts | 244° |
| 2026-04-22 03:22 | 39.82228 | -75.85392 | 23132 ft | 385 kts | 244° |
| 2026-04-22 03:22 | 39.80762 | -75.88221 | 22673 ft | 370 kts | 244° |
| 2026-04-22 03:22 | 39.79350 | -75.90933 | 22231 ft | 356 kts | 244° |
| 2026-04-22 03:22 | 39.77981 | -75.93556 | 21793 ft | 344 kts | 244° |
| 2026-04-22 03:23 | 39.76657 | -75.96085 | 21370 ft | 333 kts | 244° |
| 2026-04-22 03:23 | 39.75375 | -75.98529 | 20967 ft | 323 kts | 245° |
| 2026-04-22 03:23 | 39.74116 | -76.00932 | 20584 ft | 320 kts | 245° |
| 2026-04-22 03:23 | 39.72870 | -76.03315 | 20180 ft | 319 kts | 245° |
| 2026-04-22 03:24 | 39.71623 | -76.05692 | 19784 ft | 317 kts | 245° |
| 2026-04-22 03:24 | 39.70382 | -76.08053 | 19388 ft | 316 kts | 245° |
| 2026-04-22 03:24 | 39.69163 | -76.10369 | 18995 ft | 315 kts | 244° |
| 2026-04-22 03:24 | 39.67926 | -76.12717 | 18577 ft | 315 kts | 244° |
| 2026-04-22 03:25 | 39.66691 | -76.15059 | 18099 ft | 314 kts | 244° |
| 2026-04-22 03:25 | 39.65446 | -76.17417 | 17645 ft | 312 kts | 244° |
| 2026-04-22 03:25 | 39.64237 | -76.19710 | 16992 ft | 312 kts | 244° |
| 2026-04-22 03:25 | 39.62995 | -76.22062 | 16525 ft | 312 kts | 244° |
| 2026-04-22 03:26 | 39.61788 | -76.24347 | 16115 ft | 310 kts | 243° |
| 2026-04-22 03:26 | 39.60553 | -76.26679 | 15702 ft | 309 kts | 243° |
| 2026-04-22 03:26 | 39.59339 | -76.28969 | 15294 ft | 308 kts | 242° |
| 2026-04-22 03:26 | 39.57838 | -76.30997 | 14869 ft | 321 kts | 223° |
| 2026-04-22 03:27 | 39.55974 | -76.32592 | 14462 ft | 322 kts | 220° |
| 2026-04-22 03:27 | 39.54094 | -76.34168 | 14042 ft | 321 kts | 220° |
| 2026-04-22 03:27 | 39.52232 | -76.35757 | 13585 ft | 320 kts | 220° |
| 2026-04-22 03:27 | 39.50402 | -76.37336 | 13157 ft | 318 kts | 220° |
| 2026-04-22 03:28 | 39.48586 | -76.38912 | 12755 ft | 315 kts | 221° |
| 2026-04-22 03:28 | 39.46751 | -76.40505 | 12367 ft | 312 kts | 221° |
| 2026-04-22 03:28 | 39.44981 | -76.42042 | 11968 ft | 309 kts | 220° |
| 2026-04-22 03:28 | 39.43227 | -76.43560 | 11882 ft | 300 kts | 220° |
| 2026-04-22 03:29 | 39.41493 | -76.45063 | 11752 ft | 300 kts | 220° |
| 2026-04-22 03:29 | 39.39755 | -76.46571 | 11632 ft | 302 kts | 220° |
| 2026-04-22 03:29 | 39.37999 | -76.48095 | 11510 ft | 305 kts | 220° |
| 2026-04-22 03:29 | 39.36231 | -76.49627 | 11391 ft | 306 kts | 220° |
| 2026-04-22 03:30 | 39.34462 | -76.51157 | 11242 ft | 306 kts | 220° |
| 2026-04-22 03:30 | 39.32699 | -76.52680 | 11121 ft | 304 kts | 221° |
| 2026-04-22 03:30 | 39.30941 | -76.54199 | 10988 ft | 303 kts | 221° |
| 2026-04-22 03:30 | 39.29189 | -76.55711 | 10865 ft | 302 kts | 220° |
| 2026-04-22 03:31 | 39.27445 | -76.57216 | 10739 ft | 301 kts | 221° |
| 2026-04-22 03:31 | 39.25706 | -76.58716 | 10574 ft | 300 kts | 221° |
| 2026-04-22 03:31 | 39.23977 | -76.60208 | 10434 ft | 299 kts | 220° |
| 2026-04-22 03:31 | 39.22255 | -76.61692 | 10322 ft | 298 kts | 220° |
| 2026-04-22 03:32 | 39.20533 | -76.63175 | 10192 ft | 297 kts | 220° |
| 2026-04-22 03:32 | 39.18820 | -76.64648 | 10063 ft | 295 kts | 220° |
| 2026-04-22 03:32 | 39.17137 | -76.66096 | 9965 ft | 285 kts | 222° |
| 2026-04-22 03:32 | 39.15643 | -76.67652 | 9947 ft | 270 kts | 229° |
| 2026-04-22 03:33 | 39.14743 | -76.68723 | 9940 ft | 262 kts | 231° |
| 2026-04-22 03:33 | 39.13038 | -76.70805 | 9933 ft | 243 kts | 231° |
| 2026-04-22 03:33 | 39.12242 | -76.71773 | 9970 ft | 233 kts | 232° |
| 2026-04-22 03:33 | 39.11092 | -76.73164 | 9973 ft | 220 kts | 232° |
| 2026-04-22 03:34 | 39.09983 | -76.74501 | 9982 ft | 219 kts | 232° |
| 2026-04-22 03:34 | 39.08563 | -76.76215 | 10001 ft | 227 kts | 232° |
| 2026-04-22 03:34 | 39.07775 | -76.77161 | 10004 ft | 230 kts | 231° |
| 2026-04-22 03:34 | 39.06603 | -76.78559 | 9995 ft | 230 kts | 231° |
| 2026-04-22 03:35 | 39.05430 | -76.79950 | 9986 ft | 229 kts | 231° |
| 2026-04-22 03:35 | 39.04259 | -76.81338 | 9967 ft | 228 kts | 231° |
| 2026-04-22 03:35 | 39.03091 | -76.82719 | 9799 ft | 227 kts | 231° |
| 2026-04-22 03:35 | 39.01922 | -76.84104 | 9441 ft | 230 kts | 231° |
| 2026-04-22 03:36 | 39.00759 | -76.85480 | 8943 ft | 239 kts | 230° |
| 2026-04-22 03:36 | 38.99493 | -76.86983 | 8130 ft | 261 kts | 228° |
| 2026-04-22 03:36 | 38.98158 | -76.88612 | 7692 ft | 260 kts | 235° |
| 2026-04-22 03:36 | 38.97383 | -76.90595 | 7401 ft | 247 kts | 260° |
| 2026-04-22 03:37 | 38.97228 | -76.92757 | 7185 ft | 242 kts | 275° |
| 2026-04-22 03:37 | 38.97311 | -76.94911 | 7006 ft | 242 kts | 276° |
| 2026-04-22 03:37 | 38.97409 | -76.97076 | 6850 ft | 244 kts | 276° |
| 2026-04-22 03:37 | 38.97497 | -76.99256 | 6667 ft | 244 kts | 275° |
| 2026-04-22 03:38 | 38.97612 | -77.01428 | 6484 ft | 243 kts | 282° |
| 2026-04-22 03:38 | 38.98278 | -77.03377 | 6227 ft | 237 kts | 304° |
| 2026-04-22 03:38 | 38.99374 | -77.04921 | 6022 ft | 231 kts | 316° |
| 2026-04-22 03:38 | 39.00537 | -77.06293 | 5986 ft | 226 kts | 316° |
| 2026-04-22 03:39 | 39.01680 | -77.07651 | 5973 ft | 221 kts | 315° |
| 2026-04-22 03:39 | 39.02804 | -77.08997 | 5967 ft | 220 kts | 315° |
| 2026-04-22 03:39 | 39.03920 | -77.10344 | 5968 ft | 221 kts | 315° |
| 2026-04-22 03:39 | 39.05033 | -77.11718 | 5979 ft | 224 kts | 315° |
| 2026-04-22 03:40 | 39.06157 | -77.13120 | 5955 ft | 226 kts | 314° |
| 2026-04-22 03:40 | 39.07278 | -77.14517 | 5945 ft | 222 kts | 315° |
| 2026-04-22 03:40 | 39.08378 | -77.15886 | 5942 ft | 218 kts | 314° |
| 2026-04-22 03:40 | 39.09467 | -77.17243 | 5954 ft | 218 kts | 314° |
| 2026-04-22 03:41 | 39.10383 | -77.18789 | 5932 ft | 220 kts | 292° |
| 2026-04-22 03:41 | 39.10645 | -77.20754 | 5725 ft | 231 kts | 267° |
| 2026-04-22 03:41 | 39.10128 | -77.22697 | 5488 ft | 231 kts | 234° |
| 2026-04-22 03:41 | 39.08871 | -77.23973 | 5239 ft | 234 kts | 206° |
| 2026-04-22 03:42 | 39.07288 | -77.24508 | 4922 ft | 238 kts | 189° |
| 2026-04-22 03:42 | 39.05621 | -77.24313 | 4471 ft | 247 kts | 165° |
| 2026-04-22 03:42 | 39.04132 | -77.23211 | 4256 ft | 246 kts | 142° |
| 2026-04-22 03:42 | 39.02893 | -77.21740 | 4086 ft | 240 kts | 139° |
| 2026-04-22 03:43 | 39.01682 | -77.20319 | 3814 ft | 232 kts | 139° |
| 2026-04-22 03:43 | 39.00552 | -77.18922 | 3699 ft | 214 kts | 138° |
| 2026-04-22 03:43 | 38.99528 | -77.17625 | 3470 ft | 205 kts | 141° |
| 2026-04-22 03:43 | 38.98519 | -77.16408 | 3196 ft | 195 kts | 143° |
| 2026-04-22 03:44 | 38.97488 | -77.15306 | 2888 ft | 187 kts | 144° |
| 2026-04-22 03:44 | 38.96411 | -77.14428 | 2493 ft | 182 kts | 155° |
| 2026-04-22 03:44 | 38.95348 | -77.13631 | 2149 ft | 173 kts | 150° |
| 2026-04-22 03:44 | 38.94406 | -77.12782 | 1906 ft | 154 kts | 149° |
| 2026-04-22 03:45 | 38.93578 | -77.12005 | 1677 ft | 141 kts | 149° |
| 2026-04-22 03:45 | 38.92777 | -77.11354 | 1553 ft | 130 kts | 158° |
| 2026-04-22 03:45 | 38.91952 | -77.10859 | 1485 ft | 133 kts | 154° |
| 2026-04-22 03:45 | 38.91286 | -77.10079 | 1349 ft | 137 kts | 132° |
| 2026-04-22 03:46 | 38.90732 | -77.09052 | 1261 ft | 139 kts | 123° |
| 2026-04-22 03:46 | 38.90364 | -77.07917 | 1112 ft | 146 kts | 111° |
| 2026-04-22 03:46 | 38.90029 | -77.06723 | 863 ft | 134 kts | 127° |
| 2026-04-22 03:46 | 38.89375 | -77.05941 | 663 ft | 124 kts | 148° |
| 2026-04-22 03:47 | 38.88655 | -77.05324 | 606 ft | 127 kts | 148° |
| 2026-04-22 03:47 | 38.87906 | -77.04660 | 512 ft | 134 kts | 146° |
| 2026-04-22 03:47 | 38.87117 | -77.04088 | 253 ft | 128 kts | 162° |
| 2026-04-22 03:47 | 38.86269 | -77.03886 | 90 ft | 124 kts | 175° |
| 2026-04-22 03:48 | 38.85447 | -77.03803 | 27 ft | 108 kts | 176° |
| 2026-04-22 03:48 | 38.84843 | -77.03745 | 23 ft | 66 kts | 176° |
| 2026-04-22 03:48 | 38.84530 | -77.03716 | 23 ft | 24 kts | 175° |
| 2026-04-22 03:48 | 38.84397 | -77.03773 | 24 ft | 15 kts | 250° |
| 2026-04-22 03:49 | 38.84462 | -77.03847 | 24 ft | 15 kts | 355° |
| 2026-04-22 03:49 | 38.84577 | -77.03859 | 26 ft | 18 kts | 355° |
| 2026-04-22 03:49 | 38.84711 | -77.03879 | 23 ft | 19 kts | 333° |
| 2026-04-22 03:49 | 38.84828 | -77.03945 | 24 ft | 19 kts | 354° |
| 2026-04-22 03:50 | 38.84956 | -77.03958 | 26 ft | 18 kts | 356° |
| 2026-04-22 03:50 | 38.85080 | -77.03972 | 24 ft | 18 kts | 355° |
| 2026-04-22 03:50 | 38.85187 | -77.03984 | 24 ft | 14 kts | 355° |
| 2026-04-22 03:50 | 38.85258 | -77.03992 | 26 ft | 8 kts | 355° |
| 2026-04-22 03:51 | 38.85309 | -77.04026 | 25 ft | 9 kts | 300° |
| 2026-04-22 03:51 | 38.85342 | -77.04087 | 26 ft | 7 kts | 326° |
| 2026-04-22 03:51 | 38.85368 | -77.04108 | 23 ft | 2 kts | 328° |
| 2026-04-22 03:51 | 38.85370 | -77.04109 | 26 ft | 0 kts | 328° |